createdAt,value
2018-12-14T00:00:59.121Z,72.10
2018-12-14T00:02:05.250Z,72.05
2018-12-14T00:03:08.678Z,71.91
2018-12-14T00:04:13.247Z,71.15
2018-12-14T00:05:16.113Z,71.19
2018-12-14T00:06:18.888Z,71.72
2018-12-14T00:07:22.140Z,71.33
2018-12-14T00:08:25.103Z,71.65
2018-12-14T00:09:28.901Z,71.46
2018-12-14T00:10:31.675Z,71.49
2018-12-14T00:11:34.443Z,71.32
2018-12-14T00:12:38.034Z,71.55
2018-12-14T00:13:41.089Z,71.73
2018-12-14T00:14:43.922Z,71.86
2018-12-14T00:15:46.702Z,71.74
2018-12-14T00:16:49.501Z,72.15
2018-12-14T00:17:52.274Z,72.30
2018-12-14T00:18:56.067Z,71.37
2018-12-14T00:19:59.156Z,71.36
2018-12-14T00:21:01.915Z,71.37
2018-12-14T00:22:04.728Z,71.17
2018-12-14T00:23:07.577Z,71.15
2018-12-14T00:24:10.360Z,71.87
2018-12-14T00:25:13.184Z,71.40
2018-12-14T00:26:16.291Z,71.45
2018-12-14T00:27:19.210Z,70.89
2018-12-14T00:28:23.712Z,70.22
2018-12-14T00:29:26.792Z,70.39
2018-12-14T00:30:29.578Z,69.91
2018-12-14T00:31:32.642Z,68.88
2018-12-14T00:32:35.440Z,69.31
2018-12-14T00:33:38.295Z,69.16
2018-12-14T00:34:41.082Z,68.75
2018-12-14T00:35:44.057Z,69.06
2018-12-14T00:36:46.818Z,68.92
2018-12-14T00:37:49.918Z,68.50
2018-12-14T00:38:52.822Z,68.30
2018-12-14T00:39:57.537Z,69.23
2018-12-14T00:41:00.318Z,69.19
2018-12-14T00:42:03.099Z,69.05
2018-12-14T00:43:05.906Z,69.07
2018-12-14T00:44:08.672Z,69.34
2018-12-14T00:45:11.478Z,68.45
2018-12-14T00:46:14.265Z,69.44
2018-12-14T00:47:17.089Z,68.30
2018-12-14T00:48:19.865Z,68.60
2018-12-14T00:49:22.637Z,68.19
2018-12-14T00:50:27.304Z,68.41
2018-12-14T00:51:30.134Z,68.46
2018-12-14T00:52:33.909Z,68.75
2018-12-14T00:53:37.759Z,67.91
2018-12-14T00:54:40.501Z,68.87
2018-12-14T00:55:43.692Z,68.39
2018-12-14T00:56:46.741Z,67.72
2018-12-14T00:57:49.513Z,68.48
2018-12-14T00:58:52.945Z,68.10
2018-12-14T00:59:55.827Z,68.15
2018-12-14T01:00:59.037Z,68.46
2018-12-14T01:02:02.563Z,68.33
2018-12-14T01:03:05.793Z,68.45
2018-12-14T01:04:08.618Z,68.75
2018-12-14T01:05:12.486Z,68.57
2018-12-14T01:06:15.724Z,68.58
2018-12-14T01:07:19.628Z,68.55
2018-12-14T01:08:23.354Z,68.39
2018-12-14T01:09:26.562Z,68.11
2018-12-14T01:10:29.343Z,68.59
2018-12-14T01:11:32.368Z,68.44
2018-12-14T01:12:35.158Z,68.46
2018-12-14T01:13:38.088Z,68.15
2018-12-14T01:14:40.896Z,67.72
2018-12-14T01:15:44.005Z,68.48
2018-12-14T01:16:46.820Z,68.09
2018-12-14T01:17:49.627Z,67.72
2018-12-14T01:18:52.406Z,67.54
2018-12-14T01:19:55.211Z,67.96
2018-12-14T01:20:57.974Z,67.70
2018-12-14T01:22:01.079Z,67.94
2018-12-14T01:23:03.885Z,67.93
2018-12-14T01:24:06.775Z,67.95
2018-12-14T01:25:09.561Z,68.18
2018-12-14T01:26:13.975Z,67.08
2018-12-14T01:27:16.737Z,67.27
2018-12-14T01:28:19.834Z,67.67
2018-12-14T01:29:23.366Z,67.53
2018-12-14T01:30:26.136Z,67.90
2018-12-14T01:31:28.895Z,67.55
2018-12-14T01:32:31.662Z,68.09
2018-12-14T01:33:34.391Z,67.53
2018-12-14T01:34:37.482Z,67.48
2018-12-14T01:35:40.249Z,67.45
2018-12-14T01:36:43.032Z,67.90
2018-12-14T01:37:45.791Z,68.02
2018-12-14T01:38:48.608Z,67.45
2018-12-14T01:39:51.406Z,67.92
2018-12-14T01:40:55.583Z,67.75
2018-12-14T01:42:04.611Z,67.24
2018-12-14T01:43:03.846Z,67.66
2018-12-14T01:44:07.318Z,67.79
2018-12-14T01:45:10.018Z,67.84
2018-12-14T01:46:12.797Z,67.92
2018-12-14T01:47:15.963Z,67.53
2018-12-14T01:48:18.835Z,68.03
2018-12-14T01:49:22.406Z,68.19
2018-12-14T01:50:25.160Z,68.01
2018-12-14T01:51:27.922Z,67.87
2018-12-14T01:52:30.842Z,67.76
2018-12-14T01:53:33.916Z,68.19
2018-12-14T01:54:36.704Z,68.35
2018-12-14T01:55:39.517Z,68.06
2018-12-14T01:56:42.286Z,68.09
2018-12-14T01:57:45.039Z,68.21
2018-12-14T01:58:47.795Z,67.94
2018-12-14T01:59:51.368Z,67.53
2018-12-14T02:00:55.282Z,67.22
2018-12-14T02:02:00.066Z,68.00
2018-12-14T02:03:02.849Z,68.05
2018-12-14T02:04:05.617Z,67.67
2018-12-14T02:05:08.732Z,67.62
2018-12-14T02:06:11.498Z,68.07
2018-12-14T02:07:14.321Z,67.52
2018-12-14T02:08:17.134Z,67.62
2018-12-14T02:09:20.595Z,67.47
2018-12-14T02:10:23.354Z,67.49
2018-12-14T02:11:26.431Z,67.97
2018-12-14T02:12:29.250Z,67.64
2018-12-14T02:13:32.057Z,67.87
2018-12-14T02:14:34.840Z,67.80
2018-12-14T02:15:37.592Z,67.32
2018-12-14T02:16:40.432Z,68.11
2018-12-14T02:17:43.555Z,67.81
2018-12-14T02:18:46.331Z,67.43
2018-12-14T02:19:49.156Z,67.66
2018-12-14T02:20:51.934Z,67.20
2018-12-14T02:21:54.766Z,66.80
2018-12-14T02:22:57.516Z,67.07
2018-12-14T02:24:00.564Z,66.99
2018-12-14T02:25:03.346Z,67.50
2018-12-14T02:26:06.121Z,66.91
2018-12-14T02:27:08.902Z,66.91
2018-12-14T02:28:11.711Z,67.66
2018-12-14T02:29:14.424Z,66.91
2018-12-14T02:30:17.577Z,67.11
2018-12-14T02:31:20.320Z,67.39
2018-12-14T02:32:23.101Z,67.40
2018-12-14T02:33:26.790Z,67.03
2018-12-14T02:34:29.590Z,67.18
2018-12-14T02:35:32.355Z,66.83
2018-12-14T02:36:35.625Z,67.44
2018-12-14T02:37:38.446Z,66.81
2018-12-14T02:38:42.076Z,67.45
2018-12-14T02:39:44.862Z,66.64
2018-12-14T02:40:47.706Z,67.28
2018-12-14T02:41:50.482Z,67.42
2018-12-14T02:42:53.681Z,66.82
2018-12-14T02:43:56.441Z,67.15
2018-12-14T02:44:59.207Z,67.00
2018-12-14T02:46:02.011Z,67.29
2018-12-14T02:47:04.830Z,66.95
2018-12-14T02:48:07.639Z,66.90
2018-12-14T02:49:10.891Z,67.24
2018-12-14T02:50:13.666Z,66.93
2018-12-14T02:51:16.490Z,66.95
2018-12-14T02:52:19.274Z,66.79
2018-12-14T02:53:22.039Z,66.99
2018-12-14T02:54:24.803Z,67.40
2018-12-14T02:55:27.975Z,67.21
2018-12-14T02:56:30.740Z,67.60
2018-12-14T02:57:33.527Z,67.28
2018-12-14T02:58:36.306Z,67.74
2018-12-14T02:59:40.572Z,67.73
2018-12-14T03:00:43.316Z,67.32
2018-12-14T03:01:47.369Z,67.79
2018-12-14T03:02:50.576Z,67.85
2018-12-14T03:03:53.348Z,67.58
2018-12-14T03:04:56.107Z,68.06
2018-12-14T03:05:58.911Z,67.48
2018-12-14T03:07:01.726Z,67.55
2018-12-14T03:08:05.807Z,67.35
2018-12-14T03:09:08.617Z,67.53
2018-12-14T03:10:11.636Z,67.73
2018-12-14T03:11:14.437Z,67.09
2018-12-14T03:12:17.211Z,67.29
2018-12-14T03:13:20.011Z,68.20
2018-12-14T03:14:23.246Z,67.42
2018-12-14T03:15:25.996Z,68.11
2018-12-14T03:16:28.711Z,67.59
2018-12-14T03:17:31.541Z,67.78
2018-12-14T03:18:34.349Z,67.43
2018-12-14T03:19:37.098Z,67.23
2018-12-14T03:20:40.716Z,67.82
2018-12-14T03:21:46.685Z,67.37
2018-12-14T03:22:50.402Z,67.83
2018-12-14T03:23:53.233Z,67.19
2018-12-14T03:24:56.065Z,67.74
2018-12-14T03:25:59.020Z,67.55
2018-12-14T03:27:02.121Z,67.44
2018-12-14T03:28:04.947Z,66.96
2018-12-14T03:29:07.746Z,67.02
2018-12-14T03:30:10.522Z,67.64
2018-12-14T03:31:13.661Z,67.94
2018-12-14T03:32:16.603Z,67.27
2018-12-14T03:33:20.508Z,67.09
2018-12-14T03:34:23.519Z,67.38
2018-12-14T03:35:26.423Z,66.92
2018-12-14T03:36:31.414Z,67.01
2018-12-14T03:37:34.780Z,67.21
2018-12-14T03:38:38.475Z,67.19
2018-12-14T03:39:41.253Z,67.47
2018-12-14T03:40:48.709Z,67.30
2018-12-14T03:41:51.472Z,67.53
2018-12-14T03:42:54.259Z,67.06
2018-12-14T03:43:57.843Z,67.52
2018-12-14T03:45:00.948Z,67.19
2018-12-14T03:46:04.423Z,67.23
2018-12-14T03:47:08.301Z,67.13
2018-12-14T03:48:11.084Z,67.78
2018-12-14T03:49:13.838Z,67.10
2018-12-14T03:50:16.611Z,67.58
2018-12-14T03:51:23.652Z,67.85
2018-12-14T03:52:26.443Z,67.70
2018-12-14T03:53:29.216Z,67.37
2018-12-14T03:54:32.009Z,67.24
2018-12-14T03:55:34.785Z,67.63
2018-12-14T03:56:37.863Z,67.68
2018-12-14T03:57:40.989Z,67.69
2018-12-14T03:58:43.770Z,68.10
2018-12-14T03:59:46.584Z,67.93
2018-12-14T04:00:49.522Z,67.92
2018-12-14T04:01:52.256Z,68.02
2018-12-14T04:02:55.238Z,67.96
2018-12-14T04:03:58.341Z,67.86
2018-12-14T04:05:01.136Z,67.76
2018-12-14T04:06:03.886Z,67.47
2018-12-14T04:07:06.641Z,67.85
2018-12-14T04:08:09.440Z,67.51
2018-12-14T04:09:12.222Z,68.04
2018-12-14T04:10:15.331Z,67.93
2018-12-14T04:11:18.713Z,67.71
2018-12-14T04:12:22.921Z,67.80
2018-12-14T04:13:25.683Z,68.14
2018-12-14T04:14:28.472Z,67.59
2018-12-14T04:15:31.292Z,68.20
2018-12-14T04:16:34.401Z,68.00
2018-12-14T04:17:37.198Z,68.16
2018-12-14T04:18:39.961Z,68.35
2018-12-14T04:19:42.802Z,68.48
2018-12-14T04:20:45.578Z,68.21
2018-12-14T04:21:48.359Z,68.99
2018-12-14T04:22:51.457Z,69.01
2018-12-14T04:23:54.244Z,69.12
2018-12-14T04:24:57.037Z,68.60
2018-12-14T04:25:59.822Z,69.10
2018-12-14T04:27:02.634Z,69.24
2018-12-14T04:28:05.413Z,68.88
2018-12-14T04:29:09.118Z,68.91
2018-12-14T04:30:11.926Z,69.03
2018-12-14T04:31:14.738Z,69.01
2018-12-14T04:32:17.557Z,69.51
2018-12-14T04:33:20.336Z,69.94
2018-12-14T04:34:23.091Z,69.71
2018-12-14T04:35:26.159Z,70.09
2018-12-14T04:36:29.101Z,69.84
2018-12-14T04:37:31.935Z,69.56
2018-12-14T04:38:34.761Z,69.84
2018-12-14T04:39:37.559Z,69.52
2018-12-14T04:40:40.342Z,70.21
2018-12-14T04:41:43.429Z,69.81
2018-12-14T04:42:48.969Z,69.83
2018-12-14T04:43:52.789Z,69.79
2018-12-14T04:44:55.504Z,70.31
2018-12-14T04:45:58.302Z,70.52
2018-12-14T04:47:01.261Z,70.60
2018-12-14T04:48:04.337Z,70.46
2018-12-14T04:49:07.127Z,70.59
2018-12-14T04:50:10.558Z,70.67
2018-12-14T04:51:13.467Z,70.28
2018-12-14T04:52:16.267Z,70.21
2018-12-14T04:53:19.111Z,70.52
2018-12-14T04:54:22.277Z,70.96
2018-12-14T04:55:25.082Z,70.92
2018-12-14T04:56:27.869Z,71.10
2018-12-14T04:57:30.688Z,71.09
2018-12-14T04:58:33.494Z,71.05
2018-12-14T04:59:36.272Z,71.16
2018-12-14T05:00:39.360Z,71.09
2018-12-14T05:01:42.187Z,70.41
2018-12-14T05:02:44.987Z,70.85
2018-12-14T05:03:47.834Z,70.91
2018-12-14T05:04:50.628Z,71.21
2018-12-14T05:05:53.397Z,71.58
2018-12-14T05:06:56.448Z,71.60
2018-12-14T05:07:59.232Z,71.24
2018-12-14T05:09:02.078Z,71.49
2018-12-14T05:10:04.853Z,71.78
2018-12-14T05:11:07.699Z,71.30
2018-12-14T05:12:10.474Z,71.53
2018-12-14T05:13:13.908Z,71.14
2018-12-14T05:14:17.218Z,71.77
2018-12-14T05:15:20.139Z,71.41
2018-12-14T05:16:22.918Z,71.56
2018-12-14T05:17:25.763Z,71.10
2018-12-14T05:18:30.575Z,71.14
2018-12-14T05:19:33.747Z,71.76
2018-12-14T05:20:36.545Z,71.09
2018-12-14T05:21:39.383Z,71.82
2018-12-14T05:22:42.149Z,72.07
2018-12-14T05:23:44.900Z,72.06
2018-12-14T05:24:47.664Z,71.83
2018-12-14T05:25:50.742Z,71.38
2018-12-14T05:26:54.368Z,71.70
2018-12-14T05:27:57.177Z,71.92
2018-12-14T05:29:00.017Z,71.24
2018-12-14T05:30:02.953Z,71.92
2018-12-14T05:31:05.735Z,71.69
2018-12-14T05:32:08.828Z,71.52
2018-12-14T05:33:11.593Z,71.41
2018-12-14T05:34:14.417Z,71.69
2018-12-14T05:35:17.252Z,71.47
2018-12-14T05:36:20.101Z,71.83
2018-12-14T05:37:23.051Z,71.77
2018-12-14T05:38:26.267Z,72.07
2018-12-14T05:39:29.101Z,71.89
2018-12-14T05:40:31.924Z,71.68
2018-12-14T05:41:34.838Z,72.13
2018-12-14T05:42:37.700Z,72.25
2018-12-14T05:43:40.542Z,72.33
2018-12-14T05:44:43.605Z,72.09
2018-12-14T05:45:46.436Z,72.48
2018-12-14T05:46:49.247Z,72.64
2018-12-14T05:47:52.037Z,72.09
2018-12-14T05:48:54.863Z,72.21
2018-12-14T05:49:57.638Z,72.60
2018-12-14T05:51:00.751Z,72.41
2018-12-14T05:52:04.208Z,72.09
2018-12-14T05:53:06.970Z,72.37
2018-12-14T05:54:09.739Z,72.05
2018-12-14T05:55:13.328Z,72.16
2018-12-14T05:56:16.159Z,72.16
2018-12-14T05:57:19.468Z,72.82
2018-12-14T05:58:22.388Z,72.21
2018-12-14T05:59:25.208Z,72.81
2018-12-14T06:00:28.828Z,72.57
2018-12-14T06:01:31.601Z,72.69
2018-12-14T06:02:34.433Z,72.92
2018-12-14T06:03:37.721Z,72.49
2018-12-14T06:04:42.446Z,72.92
2018-12-14T06:05:45.270Z,72.15
2018-12-14T06:06:48.233Z,72.64
2018-12-14T06:07:52.013Z,72.32
2018-12-14T06:08:55.461Z,72.77
2018-12-14T06:09:58.691Z,72.14
2018-12-14T06:11:01.469Z,72.67
2018-12-14T06:12:05.077Z,73.19
2018-12-14T06:13:09.286Z,72.62
2018-12-14T06:14:12.294Z,73.03
2018-12-14T06:15:15.652Z,72.87
2018-12-14T06:16:18.958Z,73.33
2018-12-14T06:17:21.777Z,73.14
2018-12-14T06:18:25.362Z,73.37
2018-12-14T06:19:35.472Z,73.53
2018-12-14T06:20:38.261Z,73.59
2018-12-14T06:21:41.055Z,73.14
2018-12-14T06:22:44.176Z,74.04
2018-12-14T06:23:47.022Z,74.17
2018-12-14T06:24:50.106Z,73.96
2018-12-14T06:25:52.913Z,74.03
2018-12-14T06:26:55.677Z,73.57
2018-12-14T06:27:58.507Z,73.84
2018-12-14T06:29:03.069Z,73.88
2018-12-14T06:45:05.009Z,74.65
2018-12-14T06:46:07.769Z,74.35
2018-12-14T06:47:10.537Z,73.80
2018-12-14T06:48:13.666Z,73.62
2018-12-14T06:49:16.468Z,74.66
2018-12-14T06:50:20.071Z,74.23
2018-12-14T06:51:22.800Z,74.35
2018-12-14T06:52:25.652Z,74.46
2018-12-14T06:53:29.356Z,74.37
2018-12-14T06:54:33.580Z,74.24
2018-12-14T06:55:36.410Z,74.45
2018-12-14T06:56:39.416Z,74.22
2018-12-14T06:57:42.226Z,73.93
2018-12-14T06:58:45.514Z,74.34
2018-12-14T06:59:48.279Z,74.00
2018-12-14T07:00:51.465Z,74.60
2018-12-14T07:01:54.326Z,74.53
2018-12-14T07:02:58.643Z,74.15
2018-12-14T07:04:04.801Z,74.14
2018-12-14T07:05:08.128Z,73.59
2018-12-14T07:06:11.444Z,74.67
2018-12-14T07:07:14.644Z,74.47
2018-12-14T07:08:17.502Z,73.79
2018-12-14T07:09:20.587Z,73.90
2018-12-14T07:10:23.378Z,74.12
2018-12-14T07:11:26.309Z,74.25
2018-12-14T07:12:29.435Z,74.25
2018-12-14T07:13:32.684Z,74.30
2018-12-14T07:14:35.513Z,73.95
2018-12-14T07:15:38.345Z,73.97
2018-12-14T07:16:41.239Z,73.91
2018-12-14T07:17:44.075Z,73.98
2018-12-14T07:18:47.992Z,74.67
2018-12-14T07:19:51.237Z,74.83
2018-12-14T07:20:53.991Z,74.52
2018-12-14T07:21:58.998Z,73.56
2018-12-14T07:23:01.882Z,73.49
2018-12-14T07:24:05.591Z,73.35
2018-12-14T07:25:08.438Z,73.75
2018-12-14T07:26:12.464Z,74.01
2018-12-14T07:27:15.915Z,73.93
2018-12-14T07:28:19.709Z,74.08
2018-12-14T07:29:22.530Z,73.80
2018-12-14T07:30:25.323Z,73.94
2018-12-14T07:31:28.578Z,74.10
2018-12-14T07:32:32.880Z,74.57
2018-12-14T07:33:36.542Z,74.74
2018-12-14T07:34:41.792Z,75.09
2018-12-14T07:35:46.341Z,74.45
2018-12-14T07:36:49.114Z,74.98
2018-12-14T07:37:52.580Z,74.56
2018-12-14T07:38:56.350Z,74.31
2018-12-14T07:39:59.220Z,74.75
2018-12-14T07:41:02.275Z,74.20
2018-12-14T07:42:06.087Z,73.85
2018-12-14T07:43:08.856Z,73.93
2018-12-14T07:44:12.055Z,73.40
2018-12-14T07:45:15.132Z,73.01
2018-12-14T07:46:20.535Z,73.75
2018-12-14T07:47:23.458Z,73.39
2018-12-14T07:48:26.345Z,73.02
2018-12-14T07:49:29.665Z,73.89
2018-12-14T07:50:34.611Z,73.69
2018-12-14T07:51:37.711Z,73.98
2018-12-14T07:52:42.623Z,73.29
2018-12-14T07:53:45.401Z,73.63
2018-12-14T07:54:48.237Z,72.82
2018-12-14T07:55:51.266Z,73.06
2018-12-14T07:56:55.696Z,70.89
2018-12-14T07:57:59.245Z,70.30
2018-12-14T07:59:02.856Z,71.15
2018-12-14T08:00:05.826Z,71.35
2018-12-14T08:01:08.708Z,71.50
2018-12-14T08:02:12.525Z,70.59
2018-12-14T08:03:18.786Z,70.40
2018-12-14T08:04:21.809Z,70.70
2018-12-14T08:05:24.606Z,70.08
2018-12-14T08:06:29.455Z,69.83
2018-12-14T08:07:32.313Z,68.64
2018-12-14T08:08:36.192Z,69.54
2018-12-14T08:09:40.348Z,69.21
2018-12-14T08:10:44.213Z,68.51
2018-12-14T08:11:49.293Z,68.17
2018-12-14T08:12:52.366Z,68.15
2018-12-14T08:13:56.750Z,67.99
2018-12-14T08:14:59.541Z,68.08
2018-12-14T08:16:02.868Z,68.01
2018-12-14T08:17:05.725Z,67.85
2018-12-14T08:18:08.576Z,67.90
2018-12-14T08:19:12.333Z,67.53
2018-12-14T08:20:17.288Z,68.33
2018-12-14T08:21:20.197Z,68.32
2018-12-14T08:22:23.353Z,67.66
2018-12-14T08:23:26.755Z,68.72
2018-12-14T08:24:29.626Z,68.52
2018-12-14T08:25:32.655Z,68.39
2018-12-14T08:26:39.885Z,68.48
2018-12-14T08:27:42.749Z,68.48
2018-12-14T08:28:46.141Z,68.43
2018-12-14T08:29:48.974Z,67.56
2018-12-14T08:30:51.849Z,68.07
2018-12-14T08:31:54.737Z,67.92
2018-12-14T08:32:57.534Z,67.81
2018-12-14T08:34:00.626Z,68.60
2018-12-14T08:35:03.445Z,68.60
2018-12-14T08:36:06.360Z,67.85
2018-12-14T08:37:09.166Z,68.39
2018-12-14T08:38:12.703Z,68.03
2018-12-14T08:39:17.182Z,68.00
2018-12-14T08:40:20.368Z,68.85
2018-12-14T08:41:23.224Z,69.35
2018-12-14T08:42:26.130Z,68.79
2018-12-14T08:43:30.597Z,68.87
2018-12-14T08:44:33.428Z,68.38
2018-12-14T08:45:36.229Z,69.03
2018-12-14T08:46:39.640Z,68.90
2018-12-14T08:47:42.472Z,68.69
2018-12-14T08:48:46.099Z,69.34
2018-12-14T08:49:48.953Z,68.81
2018-12-14T08:50:52.725Z,69.22
2018-12-14T08:51:56.490Z,69.49
2018-12-14T08:52:59.311Z,69.02
2018-12-14T08:54:02.227Z,69.11
2018-12-14T08:55:05.697Z,68.67
2018-12-14T08:56:08.528Z,68.93
2018-12-14T08:57:11.382Z,68.93
2018-12-14T08:58:14.463Z,69.44
2018-12-14T08:59:17.283Z,69.08
2018-12-14T09:00:20.093Z,68.74
2018-12-14T09:01:22.873Z,68.73
2018-12-14T09:02:25.719Z,69.52
2018-12-14T09:03:29.250Z,69.80
2018-12-14T09:04:32.510Z,69.10
2018-12-14T09:05:35.344Z,69.48
2018-12-14T09:06:38.151Z,69.04
2018-12-14T09:07:40.920Z,68.67
2018-12-14T09:08:44.454Z,69.39
2018-12-14T09:09:47.367Z,69.32
2018-12-14T09:10:56.243Z,69.13
2018-12-14T09:11:59.073Z,69.60
2018-12-14T09:13:01.911Z,68.87
2018-12-14T09:14:04.796Z,69.33
2018-12-14T09:15:07.640Z,68.64
2018-12-14T09:16:10.394Z,69.11
2018-12-14T09:17:13.547Z,69.27
2018-12-14T09:18:16.411Z,69.61
2018-12-14T09:19:20.178Z,69.47
2018-12-14T09:20:22.986Z,69.07
2018-12-14T09:21:25.834Z,69.20
2018-12-14T09:22:29.861Z,69.45
2018-12-14T09:23:34.042Z,69.30
2018-12-14T09:24:38.258Z,69.06
2018-12-14T09:25:41.296Z,69.48
2018-12-14T09:26:44.188Z,68.74
2018-12-14T09:27:47.593Z,69.49
2018-12-14T09:28:51.423Z,68.64
2018-12-14T09:29:55.347Z,69.48
2018-12-14T09:30:58.213Z,69.16
2018-12-14T09:32:01.086Z,68.85
2018-12-14T09:33:04.072Z,68.60
2018-12-14T09:34:07.423Z,68.64
2018-12-14T09:35:10.326Z,68.38
2018-12-14T09:36:13.477Z,69.10
2018-12-14T09:37:16.299Z,68.92
2018-12-14T09:38:19.372Z,68.76
2018-12-14T09:39:22.405Z,68.86
2018-12-14T09:40:27.701Z,68.56
2018-12-14T09:41:31.501Z,68.80
2018-12-14T09:42:35.611Z,68.62
2018-12-14T09:43:38.634Z,68.74
2018-12-14T09:44:41.458Z,68.68
2018-12-14T09:45:47.949Z,68.76
2018-12-14T09:46:50.871Z,68.98
2018-12-14T09:47:53.748Z,68.70
2018-12-14T09:48:56.962Z,68.67
2018-12-14T09:50:01.895Z,68.30
2018-12-14T09:51:12.183Z,68.19
2018-12-14T09:52:10.471Z,68.54
2018-12-14T09:53:16.560Z,68.08
2018-12-14T09:54:21.455Z,68.19
2018-12-14T09:55:25.396Z,68.00
2018-12-14T09:56:29.374Z,67.46
2018-12-14T09:57:34.910Z,67.92
2018-12-14T09:58:37.826Z,68.00
2018-12-14T09:59:40.649Z,68.25
2018-12-14T10:00:43.454Z,67.68
2018-12-14T10:01:46.248Z,68.17
2018-12-14T10:02:49.046Z,67.78
2018-12-14T10:03:52.150Z,66.72
2018-12-14T10:06:42.146Z,67.55
2018-12-14T10:07:46.959Z,67.14
2018-12-14T10:08:53.234Z,67.81
2018-12-14T10:09:56.042Z,67.54
2018-12-14T10:10:59.042Z,67.62
2018-12-14T10:12:01.840Z,67.94
2018-12-14T10:13:08.997Z,67.77
2018-12-14T10:14:12.716Z,66.99
2018-12-14T10:15:15.743Z,67.11
2018-12-14T10:16:19.504Z,67.02
2018-12-14T10:17:23.064Z,67.31
2018-12-14T10:18:26.602Z,67.36
2018-12-14T10:19:29.848Z,67.56
2018-12-14T10:20:32.801Z,67.98
2018-12-14T10:21:35.611Z,67.02
2018-12-14T10:22:41.550Z,66.85
2018-12-14T10:23:44.722Z,67.12
2018-12-14T10:24:47.956Z,67.20
2018-12-14T10:25:51.257Z,67.52
2018-12-14T10:26:54.968Z,67.16
2018-12-14T10:27:58.021Z,67.19
2018-12-14T10:29:01.092Z,66.97
2018-12-14T10:30:04.139Z,67.66
2018-12-14T10:31:07.724Z,66.68
2018-12-14T10:32:11.185Z,67.43
2018-12-14T10:33:15.044Z,66.96
2018-12-14T10:34:18.301Z,67.56
2018-12-14T10:35:25.718Z,67.40
2018-12-14T10:36:29.864Z,67.64
2018-12-14T10:37:33.495Z,67.45
2018-12-14T10:38:38.832Z,67.64
2018-12-14T10:39:43.133Z,67.02
2018-12-14T10:40:46.437Z,66.76
2018-12-14T10:41:49.406Z,66.86
2018-12-14T10:42:53.669Z,66.66
2018-12-14T10:43:56.959Z,66.98
2018-12-14T10:45:04.903Z,66.04
2018-12-14T10:46:07.799Z,66.25
2018-12-14T10:47:11.609Z,66.47
2018-12-14T10:48:15.958Z,66.98
2018-12-14T10:49:19.506Z,66.28
2018-12-14T10:50:22.884Z,66.70
2018-12-14T10:51:26.734Z,66.53
2018-12-14T10:52:29.913Z,66.76
2018-12-14T10:53:32.803Z,65.94
2018-12-14T10:54:36.017Z,66.85
2018-12-14T10:55:39.116Z,67.13
2018-12-14T10:56:42.084Z,66.63
2018-12-14T10:57:46.650Z,67.41
2018-12-14T10:58:49.589Z,66.95
2018-12-14T10:59:53.213Z,67.47
2018-12-14T11:01:00.909Z,66.81
2018-12-14T11:02:03.912Z,67.40
2018-12-14T11:03:06.794Z,67.42
2018-12-14T11:04:10.185Z,66.89
2018-12-14T11:05:13.144Z,67.22
2018-12-14T11:06:16.715Z,67.62
2018-12-14T11:07:19.685Z,67.35
2018-12-14T11:08:22.715Z,67.62
2018-12-14T11:09:25.756Z,67.03
2018-12-14T11:14:39.028Z,67.38
2018-12-14T11:15:43.564Z,66.84
2018-12-14T11:16:46.559Z,67.45
2018-12-14T11:17:50.598Z,67.11
2018-12-14T11:18:54.672Z,66.49
2018-12-14T11:19:58.185Z,66.31
2018-12-14T11:21:01.132Z,66.76
2018-12-14T11:22:05.908Z,66.48
2018-12-14T11:23:09.624Z,66.90
2018-12-14T11:24:12.617Z,66.66
2018-12-14T11:25:15.422Z,67.08
2018-12-14T11:26:18.518Z,67.00
2018-12-14T11:27:21.476Z,66.93
2018-12-14T11:28:25.760Z,67.15
2018-12-14T11:29:28.665Z,66.63
2018-12-14T11:42:53.263Z,66.41
2018-12-14T11:45:10.241Z,66.98
2018-12-14T11:46:14.629Z,66.55
2018-12-14T11:47:18.784Z,66.49
2018-12-14T11:48:21.594Z,66.74
2018-12-14T11:49:24.524Z,66.69
2018-12-14T11:50:29.369Z,66.56
2018-12-14T11:51:33.495Z,67.21
2018-12-14T11:52:36.426Z,66.39
2018-12-14T11:53:40.583Z,66.51
2018-12-14T11:54:43.670Z,66.83
2018-12-14T11:55:46.595Z,66.02
2018-12-14T11:56:49.602Z,66.56
2018-12-14T11:57:52.566Z,66.20
2018-12-14T11:58:55.450Z,66.67
2018-12-14T11:59:58.565Z,66.45
2018-12-14T12:01:01.450Z,66.93
2018-12-14T12:02:04.406Z,66.70
2018-12-14T12:03:07.562Z,66.21
2018-12-14T12:04:11.130Z,66.87
2018-12-14T12:05:14.512Z,66.83
2018-12-14T12:06:18.759Z,66.24
2018-12-14T12:07:23.712Z,66.51
2018-12-14T12:08:27.648Z,66.44
2018-12-14T12:09:31.532Z,67.62
2018-12-14T12:10:37.341Z,67.01
2018-12-14T12:11:40.140Z,66.68
2018-12-14T12:12:45.861Z,66.72
2018-12-14T12:13:48.699Z,66.90
2018-12-14T12:14:51.541Z,66.61
2018-12-14T12:15:55.397Z,67.29
2018-12-14T12:16:58.496Z,66.91
2018-12-14T12:18:01.689Z,66.50
2018-12-14T12:19:09.027Z,66.57
2018-12-14T12:20:13.329Z,66.23
2018-12-14T12:21:16.446Z,66.50
2018-12-14T12:22:19.290Z,65.65
2018-12-14T12:23:23.766Z,65.95
2018-12-14T12:24:27.125Z,65.39
2018-12-14T12:25:32.480Z,65.97
2018-12-14T12:26:37.127Z,65.38
2018-12-14T12:27:41.939Z,65.30
2018-12-14T12:28:45.533Z,65.72
2018-12-14T12:29:51.705Z,65.38
2018-12-14T12:30:55.807Z,65.63
2018-12-14T12:31:59.718Z,65.39
2018-12-14T12:33:02.539Z,65.41
2018-12-14T12:34:07.343Z,65.24
2018-12-14T12:35:10.289Z,65.69
2018-12-14T12:36:13.100Z,65.28
2018-12-14T12:37:16.856Z,65.00
2018-12-14T12:38:20.644Z,65.09
2018-12-14T12:39:25.794Z,64.89
2018-12-14T12:40:29.714Z,64.81
2018-12-14T12:41:35.774Z,64.54
2018-12-14T12:42:39.808Z,65.04
2018-12-14T12:43:44.406Z,64.41
2018-12-14T12:44:47.416Z,65.02
2018-12-14T12:45:52.200Z,64.92
2018-12-14T12:46:56.619Z,64.72
2018-12-14T12:48:03.945Z,65.21
2018-12-14T12:49:06.932Z,64.68
2018-12-14T12:50:10.655Z,65.07
2018-12-14T12:51:14.991Z,64.83
2018-12-14T12:52:18.148Z,64.78
2018-12-14T12:53:21.157Z,64.60
2018-12-14T12:54:24.036Z,64.13
2018-12-14T12:55:28.473Z,64.62
2018-12-14T12:56:32.355Z,64.62
2018-12-14T12:57:35.290Z,64.03
2018-12-14T12:58:39.450Z,63.94
2018-12-14T12:59:42.759Z,63.54
2018-12-14T13:00:45.755Z,63.48
2018-12-14T13:01:49.891Z,63.43
2018-12-14T13:02:52.727Z,64.01
2018-12-14T13:03:57.740Z,62.73
2018-12-14T13:05:02.249Z,63.49
2018-12-14T13:06:05.235Z,63.91
2018-12-14T13:07:08.864Z,63.82
2018-12-14T13:08:12.477Z,63.76
2018-12-14T13:09:15.351Z,63.70
2018-12-14T13:10:18.517Z,63.10
2018-12-14T13:11:21.355Z,63.72
2018-12-14T13:12:27.191Z,63.81
2018-12-14T13:13:30.703Z,64.12
2018-12-14T13:14:39.860Z,63.85
2018-12-14T13:15:39.342Z,63.32
2018-12-14T13:16:45.944Z,62.96
2018-12-14T13:17:48.831Z,63.23
2018-12-14T13:18:52.893Z,63.53
2018-12-14T13:19:56.143Z,63.61
2018-12-14T13:20:58.981Z,63.92
2018-12-14T13:22:01.785Z,63.48
2018-12-14T13:23:05.790Z,63.48
2018-12-14T13:24:08.768Z,63.51
2018-12-14T13:25:12.597Z,64.22
2018-12-14T13:26:17.261Z,63.96
2018-12-14T13:27:20.773Z,64.01
2018-12-14T13:28:23.803Z,63.96
2018-12-14T13:29:27.371Z,64.10
2018-12-14T13:30:30.176Z,63.71
2018-12-14T13:31:33.092Z,63.58
2018-12-14T13:32:36.504Z,63.50
2018-12-14T13:33:39.356Z,63.78
2018-12-14T13:34:42.909Z,63.96
2018-12-14T13:35:45.759Z,63.93
2018-12-14T13:36:49.030Z,63.73
2018-12-14T13:37:52.123Z,63.96
2018-12-14T13:38:54.928Z,63.70
2018-12-14T13:39:57.907Z,63.61
2018-12-14T13:41:01.593Z,63.76
2018-12-14T13:42:04.449Z,63.80
2018-12-14T13:43:07.309Z,63.93
2018-12-14T13:44:10.471Z,63.69
2018-12-14T13:45:14.469Z,63.81
2018-12-14T13:46:17.428Z,63.29
2018-12-14T13:47:20.286Z,63.20
2018-12-14T13:48:23.825Z,63.41
2018-12-14T13:49:27.830Z,63.22
2018-12-14T13:50:31.534Z,63.36
2018-12-14T13:51:34.668Z,63.51
2018-12-14T13:52:37.515Z,63.53
2018-12-14T13:53:41.330Z,63.47
2018-12-14T13:54:45.814Z,63.63
2018-12-14T13:55:50.179Z,63.73
2018-12-14T13:56:53.564Z,63.87
2018-12-14T13:57:58.418Z,63.32
2018-12-14T13:59:01.642Z,63.85
2018-12-14T14:00:07.854Z,63.28
2018-12-14T14:01:12.479Z,63.45
2018-12-14T14:02:18.190Z,63.84
2018-12-14T14:03:21.718Z,63.46
2018-12-14T14:04:24.526Z,63.69
2018-12-14T14:05:27.375Z,63.64
2018-12-14T14:06:30.203Z,63.95
2018-12-14T14:07:34.402Z,63.70
2018-12-14T14:08:37.282Z,63.43
2018-12-14T14:09:42.367Z,63.35
2018-12-14T14:10:45.175Z,63.42